sensor_id;sensor_type;location;lat;lon;timestamp;pressure;altitude;pressure_sealevel;temperature;humidity
70248;BME280;57641;51.416;5.506;2022-12-22T00:00:46;100574.56;;;14.25;67.98
70248;BME280;57641;51.416;5.506;2022-12-22T00:03:31;100567.34;;;14.25;67.69
70248;BME280;57641;51.416;5.506;2022-12-22T00:06:16;100567.78;;;14.29;67.56
70248;BME280;57641;51.416;5.506;2022-12-22T00:09:00;100564.75;;;14.32;67.47
70248;BME280;57641;51.416;5.506;2022-12-22T00:11:44;100561.03;;;14.33;67.34
70248;BME280;57641;51.416;5.506;2022-12-22T00:14:30;100556.19;;;14.36;67.63
70248;BME280;57641;51.416;5.506;2022-12-22T00:17:26;100553.34;;;14.38;67.31
70248;BME280;57641;51.416;5.506;2022-12-22T00:20:17;100554.34;;;14.37;66.88
70248;BME280;57641;51.416;5.506;2022-12-22T00:23:02;100554.50;;;14.35;67.12
70248;BME280;57641;51.416;5.506;2022-12-22T00:25:46;100543.63;;;14.37;67.20
70248;BME280;57641;51.416;5.506;2022-12-22T00:28:32;100538.88;;;14.39;66.94
70248;BME280;57641;51.416;5.506;2022-12-22T00:31:17;100544.72;;;14.43;66.89
70248;BME280;57641;51.416;5.506;2022-12-22T00:34:03;100547.19;;;14.44;66.61
70248;BME280;57641;51.416;5.506;2022-12-22T00:36:47;100540.00;;;14.45;67.15
70248;BME280;57641;51.416;5.506;2022-12-22T00:39:31;100531.78;;;14.46;66.82
70248;BME280;57641;51.416;5.506;2022-12-22T00:42:15;100525.38;;;14.47;66.66
70248;BME280;57641;51.416;5.506;2022-12-22T00:44:59;100519.84;;;14.49;66.67
70248;BME280;57641;51.416;5.506;2022-12-22T00:47:43;100511.59;;;14.50;66.78
70248;BME280;57641;51.416;5.506;2022-12-22T00:50:31;100507.25;;;14.49;66.54
70248;BME280;57641;51.416;5.506;2022-12-22T00:53:16;100503.38;;;14.52;66.37
70248;BME280;57641;51.416;5.506;2022-12-22T00:56:05;100506.88;;;14.52;66.27
70248;BME280;57641;51.416;5.506;2022-12-22T00:58:51;100499.47;;;14.54;66.58
70248;BME280;57641;51.416;5.506;2022-12-22T01:01:36;100491.69;;;14.59;66.41
70248;BME280;57641;51.416;5.506;2022-12-22T01:04:20;100485.88;;;14.56;66.20
70248;BME280;57641;51.416;5.506;2022-12-22T01:07:05;100478.84;;;14.55;66.46
70248;BME280;57641;51.416;5.506;2022-12-22T01:09:51;100486.53;;;14.58;66.50
70248;BME280;57641;51.416;5.506;2022-12-22T01:12:39;100476.16;;;14.55;66.29
70248;BME280;57641;51.416;5.506;2022-12-22T01:15:26;100462.56;;;14.56;66.70
70248;BME280;57641;51.416;5.506;2022-12-22T01:18:10;100463.22;;;14.58;66.61
70248;BME280;57641;51.416;5.506;2022-12-22T01:20:55;100447.13;;;14.58;66.69
70248;BME280;57641;51.416;5.506;2022-12-22T01:23:39;100454.97;;;14.60;66.52
70248;BME280;57641;51.416;5.506;2022-12-22T01:26:24;100449.59;;;14.60;66.48
70248;BME280;57641;51.416;5.506;2022-12-22T01:29:09;100443.22;;;14.61;66.46
70248;BME280;57641;51.416;5.506;2022-12-22T01:31:54;100440.34;;;14.62;66.70
70248;BME280;57641;51.416;5.506;2022-12-22T01:34:39;100429.63;;;14.62;66.42
70248;BME280;57641;51.416;5.506;2022-12-22T01:37:23;100438.31;;;14.64;66.27
70248;BME280;57641;51.416;5.506;2022-12-22T01:40:27;100440.78;;;14.66;66.24
70248;BME280;57641;51.416;5.506;2022-12-22T01:43:27;100429.88;;;14.67;66.36
70248;BME280;57641;51.416;5.506;2022-12-22T01:46:41;100429.34;;;14.57;66.48
70248;BME280;57641;51.416;5.506;2022-12-22T01:49:37;100434.31;;;14.60;66.74
70248;BME280;57641;51.416;5.506;2022-12-22T01:52:32;100426.09;;;14.62;66.35
70248;BME280;57641;51.416;5.506;2022-12-22T01:55:20;100413.50;;;14.62;66.62
70248;BME280;57641;51.416;5.506;2022-12-22T01:58:13;100404.06;;;14.66;66.42
70248;BME280;57641;51.416;5.506;2022-12-22T02:00:59;100407.56;;;14.67;66.27
70248;BME280;57641;51.416;5.506;2022-12-22T02:03:43;100394.81;;;14.69;66.33
70248;BME280;57641;51.416;5.506;2022-12-22T02:15:29;100379.72;;;14.68;66.31
70248;BME280;57641;51.416;5.506;2022-12-22T02:18:25;100376.41;;;14.66;66.47
70248;BME280;57641;51.416;5.506;2022-12-22T02:21:17;100380.75;;;14.67;66.49
70248;BME280;57641;51.416;5.506;2022-12-22T02:27:14;100370.44;;;14.70;66.37
70248;BME280;57641;51.416;5.506;2022-12-22T02:30:04;100368.41;;;14.72;66.30
70248;BME280;57641;51.416;5.506;2022-12-22T02:32:50;100372.59;;;14.75;66.38
70248;BME280;57641;51.416;5.506;2022-12-22T02:47:50;100349.19;;;14.69;66.58
70248;BME280;57641;51.416;5.506;2022-12-22T02:51:04;100347.13;;;14.71;66.36
70248;BME280;57641;51.416;5.506;2022-12-22T02:53:51;100344.91;;;14.74;66.28
70248;BME280;57641;51.416;5.506;2022-12-22T02:56:37;100340.38;;;14.75;66.19
70248;BME280;57641;51.416;5.506;2022-12-22T02:59:22;100338.13;;;14.78;66.23
70248;BME280;57641;51.416;5.506;2022-12-22T03:02:06;100336.28;;;14.79;66.10
70248;BME280;57641;51.416;5.506;2022-12-22T03:04:50;100335.44;;;14.78;65.93
70248;BME280;57641;51.416;5.506;2022-12-22T03:07:34;100335.25;;;14.80;65.98
70248;BME280;57641;51.416;5.506;2022-12-22T03:10:19;100329.50;;;14.83;65.82
70248;BME280;57641;51.416;5.506;2022-12-22T03:13:03;100331.34;;;14.83;65.78
70248;BME280;57641;51.416;5.506;2022-12-22T03:15:47;100320.78;;;14.81;66.07
70248;BME280;57641;51.416;5.506;2022-12-22T03:18:31;100317.94;;;14.83;66.25
70248;BME280;57641;51.416;5.506;2022-12-22T03:21:15;100309.88;;;14.83;66.10
70248;BME280;57641;51.416;5.506;2022-12-22T03:23:59;100309.44;;;14.79;66.05
70248;BME280;57641;51.416;5.506;2022-12-22T03:26:43;100312.72;;;14.74;66.41
70248;BME280;57641;51.416;5.506;2022-12-22T03:29:09;100312.97;;;14.79;66.39
70248;BME280;57641;51.416;5.506;2022-12-22T03:31:34;100310.31;;;14.86;66.37
70248;BME280;57641;51.416;5.506;2022-12-22T03:34:03;100311.38;;;14.92;66.21
70248;BME280;57641;51.416;5.506;2022-12-22T03:36:28;100303.97;;;14.94;65.93
70248;BME280;57641;51.416;5.506;2022-12-22T03:38:53;100305.91;;;15.00;65.83
70248;BME280;57641;51.416;5.506;2022-12-22T03:41:19;100301.34;;;15.00;65.51
70248;BME280;57641;51.416;5.506;2022-12-22T03:44:03;100296.34;;;14.97;65.56
70248;BME280;57641;51.416;5.506;2022-12-22T03:46:47;100300.66;;;14.92;65.39
70248;BME280;57641;51.416;5.506;2022-12-22T03:49:12;100297.13;;;14.91;65.29
70248;BME280;57641;51.416;5.506;2022-12-22T03:51:46;100296.94;;;14.93;65.00
70248;BME280;57641;51.416;5.506;2022-12-22T03:54:14;100290.97;;;14.91;65.09
70248;BME280;57641;51.416;5.506;2022-12-22T03:56:41;100293.25;;;14.94;65.26
70248;BME280;57641;51.416;5.506;2022-12-22T03:59:07;100302.78;;;14.96;65.19
70248;BME280;57641;51.416;5.506;2022-12-22T04:01:36;100297.66;;;15.01;65.17
70248;BME280;57641;51.416;5.506;2022-12-22T04:04:02;100292.91;;;15.03;65.13
70248;BME280;57641;51.416;5.506;2022-12-22T04:06:28;100287.16;;;15.06;64.97
70248;BME280;57641;51.416;5.506;2022-12-22T04:08:53;100284.00;;;15.03;64.97
70248;BME280;57641;51.416;5.506;2022-12-22T04:11:19;100283.81;;;15.04;65.15
70248;BME280;57641;51.416;5.506;2022-12-22T04:14:03;100283.59;;;14.99;65.39
70248;BME280;57641;51.416;5.506;2022-12-22T04:16:29;100282.34;;;15.02;64.95
70248;BME280;57641;51.416;5.506;2022-12-22T04:18:55;100280.47;;;14.96;64.82
70248;BME280;57641;51.416;5.506;2022-12-22T04:21:21;100272.00;;;14.99;64.90
70248;BME280;57641;51.416;5.506;2022-12-22T04:23:46;100272.66;;;15.01;64.85
70248;BME280;57641;51.416;5.506;2022-12-22T04:26:17;100263.78;;;15.00;64.48
70248;BME280;57641;51.416;5.506;2022-12-22T04:28:43;100269.75;;;15.02;64.55
70248;BME280;57641;51.416;5.506;2022-12-22T04:31:08;100268.75;;;15.03;64.35
70248;BME280;57641;51.416;5.506;2022-12-22T04:33:33;100276.59;;;15.05;64.53
70248;BME280;57641;51.416;5.506;2022-12-22T04:35:59;100281.97;;;15.05;64.71
70248;BME280;57641;51.416;5.506;2022-12-22T04:38:24;100281.97;;;15.05;64.82
70248;BME280;57641;51.416;5.506;2022-12-22T04:40:49;100280.13;;;15.05;64.55
70248;BME280;57641;51.416;5.506;2022-12-22T04:43:15;100278.47;;;15.04;64.39
70248;BME280;57641;51.416;5.506;2022-12-22T04:45:40;100285.50;;;15.05;64.41
70248;BME280;57641;51.416;5.506;2022-12-22T04:48:06;100280.13;;;15.05;64.54
70248;BME280;57641;51.416;5.506;2022-12-22T04:50:31;100284.66;;;15.05;63.97
70248;BME280;57641;51.416;5.506;2022-12-22T04:52:57;100283.63;;;15.06;63.78
70248;BME280;57641;51.416;5.506;2022-12-22T04:55:22;100285.50;;;15.05;63.84
70248;BME280;57641;51.416;5.506;2022-12-22T04:57:47;100289.19;;;15.04;63.55
70248;BME280;57641;51.416;5.506;2022-12-22T05:00:13;100294.56;;;15.04;63.65
70248;BME280;57641;51.416;5.506;2022-12-22T05:02:39;100286.69;;;15.03;63.80
70248;BME280;57641;51.416;5.506;2022-12-22T05:05:05;100291.22;;;15.02;63.43
70248;BME280;57641;51.416;5.506;2022-12-22T05:07:31;100290.63;;;15.00;63.59
70248;BME280;57641;51.416;5.506;2022-12-22T05:09:56;100297.00;;;14.99;63.11
70248;BME280;57641;51.416;5.506;2022-12-22T05:12:21;100295.34;;;14.98;63.60
70248;BME280;57641;51.416;5.506;2022-12-22T05:15:06;100293.25;;;14.94;63.96
70248;BME280;57641;51.416;5.506;2022-12-22T05:17:32;100293.06;;;14.95;64.08
70248;BME280;57641;51.416;5.506;2022-12-22T05:19:57;100286.69;;;14.96;63.61
70248;BME280;57641;51.416;5.506;2022-12-22T05:22:23;100292.66;;;14.98;63.48
70248;BME280;57641;51.416;5.506;2022-12-22T05:24:48;100284.59;;;14.98;63.28
70248;BME280;57641;51.416;5.506;2022-12-22T05:27:13;100285.25;;;15.00;63.13
70248;BME280;57641;51.416;5.506;2022-12-22T05:29:39;100278.22;;;14.99;63.00
70248;BME280;57641;51.416;5.506;2022-12-22T05:32:04;100275.72;;;14.98;62.73
70248;BME280;57641;51.416;5.506;2022-12-22T05:34:29;100278.34;;;14.91;63.11
70248;BME280;57641;51.416;5.506;2022-12-22T05:36:55;100282.25;;;14.89;63.13
70248;BME280;57641;51.416;5.506;2022-12-22T05:39:20;100283.03;;;14.83;63.87
70248;BME280;57641;51.416;5.506;2022-12-22T05:41:46;100287.97;;;14.79;63.87
70248;BME280;57641;51.416;5.506;2022-12-22T05:44:11;100289.59;;;14.73;63.85
70248;BME280;57641;51.416;5.506;2022-12-22T05:46:37;100306.13;;;14.77;64.32
70248;BME280;57641;51.416;5.506;2022-12-22T05:49:02;100316.59;;;14.72;64.44
70248;BME280;57641;51.416;5.506;2022-12-22T05:51:27;100319.09;;;14.73;64.35
70248;BME280;57641;51.416;5.506;2022-12-22T05:53:53;100319.94;;;14.74;64.68
70248;BME280;57641;51.416;5.506;2022-12-22T05:56:18;100318.84;;;14.68;64.45
70248;BME280;57641;51.416;5.506;2022-12-22T05:58:44;100319.03;;;14.67;65.39
70248;BME280;57641;51.416;5.506;2022-12-22T06:01:09;100322.16;;;14.70;65.66
70248;BME280;57641;51.416;5.506;2022-12-22T06:03:34;100327.41;;;14.78;65.67
70248;BME280;57641;51.416;5.506;2022-12-22T06:06:00;100336.28;;;14.79;65.57
70248;BME280;57641;51.416;5.506;2022-12-22T06:08:26;100336.72;;;14.83;66.09
70248;BME280;57641;51.416;5.506;2022-12-22T06:10:56;100350.22;;;14.68;66.64
70248;BME280;57641;51.416;5.506;2022-12-22T06:13:22;100350.66;;;14.71;66.62
70248;BME280;57641;51.416;5.506;2022-12-22T06:15:48;100365.28;;;14.69;66.81
70248;BME280;57641;51.416;5.506;2022-12-22T06:18:14;100362.22;;;14.72;67.07
70248;BME280;57641;51.416;5.506;2022-12-22T06:20:39;100368.28;;;14.59;67.37
70248;BME280;57641;51.416;5.506;2022-12-22T06:23:05;100372.13;;;14.71;67.43
70248;BME280;57641;51.416;5.506;2022-12-22T06:25:30;100378.56;;;14.77;66.97
70248;BME280;57641;51.416;5.506;2022-12-22T06:27:56;100384.50;;;14.72;67.11
70248;BME280;57641;51.416;5.506;2022-12-22T06:30:21;100391.72;;;14.72;67.16
70248;BME280;57641;51.416;5.506;2022-12-22T06:32:47;100393.84;;;14.76;67.00
70248;BME280;57641;51.416;5.506;2022-12-22T06:35:13;100403.22;;;14.66;67.04
70248;BME280;57641;51.416;5.506;2022-12-22T06:37:38;100408.59;;;14.66;67.21
70248;BME280;57641;51.416;5.506;2022-12-22T06:40:05;100412.72;;;14.47;67.36
70248;BME280;57641;51.416;5.506;2022-12-22T06:42:31;100420.97;;;14.46;67.57
70248;BME280;57641;51.416;5.506;2022-12-22T06:45:15;100422.63;;;14.47;68.15
70248;BME280;57641;51.416;5.506;2022-12-22T06:47:41;100415.09;;;14.57;67.95
70248;BME280;57641;51.416;5.506;2022-12-22T06:50:07;100433.31;;;14.61;67.90
70248;BME280;57641;51.416;5.506;2022-12-22T06:52:32;100417.41;;;14.60;67.69
70248;BME280;57641;51.416;5.506;2022-12-22T06:54:58;100426.00;;;14.55;67.66
70248;BME280;57641;51.416;5.506;2022-12-22T06:57:23;100434.06;;;14.55;67.66
70248;BME280;57641;51.416;5.506;2022-12-22T06:59:49;100436.81;;;14.62;66.95
70248;BME280;57641;51.416;5.506;2022-12-22T07:02:14;100434.16;;;14.62;67.54
70248;BME280;57641;51.416;5.506;2022-12-22T07:04:39;100448.00;;;14.65;67.37
70248;BME280;57641;51.416;5.506;2022-12-22T07:07:05;100455.88;;;14.67;66.82
70248;BME280;57641;51.416;5.506;2022-12-22T07:09:30;100459.38;;;14.67;67.19
70248;BME280;57641;51.416;5.506;2022-12-22T07:11:56;100465.31;;;14.63;66.50
70248;BME280;57641;51.416;5.506;2022-12-22T07:14:21;100479.63;;;14.70;66.97
70248;BME280;57641;51.416;5.506;2022-12-22T07:16:46;100482.59;;;14.75;66.78
70248;BME280;57641;51.416;5.506;2022-12-22T07:19:13;100487.31;;;14.73;67.02
70248;BME280;57641;51.416;5.506;2022-12-22T07:21:38;100494.72;;;14.71;66.57
70248;BME280;57641;51.416;5.506;2022-12-22T07:24:04;100498.72;;;14.75;66.66
70248;BME280;57641;51.416;5.506;2022-12-22T07:26:30;100500.16;;;14.77;65.99
70248;BME280;57641;51.416;5.506;2022-12-22T07:28:55;100496.84;;;14.75;66.32
70248;BME280;57641;51.416;5.506;2022-12-22T07:31:22;100498.72;;;14.75;66.57
70248;BME280;57641;51.416;5.506;2022-12-22T07:33:47;100499.75;;;14.45;66.63
70248;BME280;57641;51.416;5.506;2022-12-22T07:36:16;100504.19;;;14.52;66.71
70248;BME280;57641;51.416;5.506;2022-12-22T07:38:44;100497.16;;;14.51;66.61
70248;BME280;57641;51.416;5.506;2022-12-22T07:41:11;100506.88;;;14.52;66.38
70248;BME280;57641;51.416;5.506;2022-12-22T07:43:57;100504.38;;;14.51;66.64
70248;BME280;57641;51.416;5.506;2022-12-22T07:46:25;100507.06;;;14.51;66.43
70248;BME280;57641;51.416;5.506;2022-12-22T07:48:51;100514.38;;;14.42;66.69
70248;BME280;57641;51.416;5.506;2022-12-22T07:51:37;100509.72;;;14.36;66.06
70248;BME280;57641;51.416;5.506;2022-12-22T07:54:04;100511.50;;;14.44;66.71
70248;BME280;57641;51.416;5.506;2022-12-22T07:56:29;100522.16;;;14.52;65.87
70248;BME280;57641;51.416;5.506;2022-12-22T07:58:55;100527.41;;;14.60;65.52
70248;BME280;57641;51.416;5.506;2022-12-22T08:01:20;100531.19;;;14.51;65.62
70248;BME280;57641;51.416;5.506;2022-12-22T08:03:46;100543.22;;;14.55;65.06
70248;BME280;57641;51.416;5.506;2022-12-22T08:06:14;100558.03;;;14.51;65.45
70248;BME280;57641;51.416;5.506;2022-12-22T08:08:40;100565.81;;;14.46;65.36
70248;BME280;57641;51.416;5.506;2022-12-22T08:11:05;100567.38;;;14.40;65.97
70248;BME280;57641;51.416;5.506;2022-12-22T08:13:31;100573.66;;;14.32;66.13
70248;BME280;57641;51.416;5.506;2022-12-22T08:16:08;100580.66;;;14.19;66.88
70248;BME280;57641;51.416;5.506;2022-12-22T08:18:35;100588.50;;;14.06;66.32
70248;BME280;57641;51.416;5.506;2022-12-22T08:21:02;100597.00;;;14.09;67.05
70248;BME280;57641;51.416;5.506;2022-12-22T08:23:27;100607.84;;;14.16;66.05
70248;BME280;57641;51.416;5.506;2022-12-22T08:26:14;100605.69;;;14.11;66.53
70248;BME280;57641;51.416;5.506;2022-12-22T08:28:49;100603.38;;;14.23;66.22
70248;BME280;57641;51.416;5.506;2022-12-22T08:31:18;100615.94;;;14.08;66.36
70248;BME280;57641;51.416;5.506;2022-12-22T08:33:44;100620.69;;;14.20;65.78
70248;BME280;57641;51.416;5.506;2022-12-22T08:36:10;100623.94;;;14.30;65.39
70248;BME280;57641;51.416;5.506;2022-12-22T08:38:37;100628.84;;;14.27;65.35
70248;BME280;57641;51.416;5.506;2022-12-22T08:41:04;100640.94;;;14.23;65.35
70248;BME280;57641;51.416;5.506;2022-12-22T08:43:31;100646.94;;;14.25;65.63
70248;BME280;57641;51.416;5.506;2022-12-22T08:45:57;100656.50;;;14.27;65.63
70248;BME280;57641;51.416;5.506;2022-12-22T08:48:22;100658.38;;;14.04;65.00
70248;BME280;57641;51.416;5.506;2022-12-22T08:50:48;100661.72;;;14.06;66.26
70248;BME280;57641;51.416;5.506;2022-12-22T08:53:14;100679.53;;;13.99;65.72
70248;BME280;57641;51.416;5.506;2022-12-22T08:55:39;100693.94;;;13.98;65.59
70248;BME280;57641;51.416;5.506;2022-12-22T08:58:05;100699.25;;;14.06;65.31
70248;BME280;57641;51.416;5.506;2022-12-22T09:00:30;100703.00;;;13.74;66.10
70248;BME280;57641;51.416;5.506;2022-12-22T09:02:56;100697.06;;;13.56;66.58
70248;BME280;57641;51.416;5.506;2022-12-22T09:05:21;100704.53;;;13.69;66.36
70248;BME280;57641;51.416;5.506;2022-12-22T09:07:46;100709.34;;;13.73;65.96
70248;BME280;57641;51.416;5.506;2022-12-22T09:10:12;100713.56;;;13.68;65.85
70248;BME280;57641;51.416;5.506;2022-12-22T09:12:38;100717.16;;;13.83;65.65
70248;BME280;57641;51.416;5.506;2022-12-22T09:15:05;100717.31;;;13.81;65.15
70248;BME280;57641;51.416;5.506;2022-12-22T09:17:34;100709.25;;;13.89;65.06
70248;BME280;57641;51.416;5.506;2022-12-22T09:20:01;100709.88;;;13.91;65.14
70248;BME280;57641;51.416;5.506;2022-12-22T09:22:27;100706.19;;;13.92;64.69
70248;BME280;57641;51.416;5.506;2022-12-22T09:24:52;100717.44;;;13.88;64.27
70248;BME280;57641;51.416;5.506;2022-12-22T09:27:18;100729.09;;;13.72;63.71
70248;BME280;57641;51.416;5.506;2022-12-22T09:29:43;100721.38;;;13.77;64.53
70248;BME280;57641;51.416;5.506;2022-12-22T09:32:08;100721.84;;;13.81;64.75
70248;BME280;57641;51.416;5.506;2022-12-22T09:34:34;100719.75;;;13.91;64.27
70248;BME280;57641;51.416;5.506;2022-12-22T09:36:59;100722.16;;;13.86;63.88
70248;BME280;57641;51.416;5.506;2022-12-22T09:39:25;100729.00;;;13.88;63.94
70248;BME280;57641;51.416;5.506;2022-12-22T09:41:52;100739.91;;;13.87;64.23
70248;BME280;57641;51.416;5.506;2022-12-22T09:44:37;100743.19;;;13.97;64.52
70248;BME280;57641;51.416;5.506;2022-12-22T09:47:26;100743.00;;;13.99;64.85
70248;BME280;57641;51.416;5.506;2022-12-22T09:49:54;100751.28;;;13.89;63.99
70248;BME280;57641;51.416;5.506;2022-12-22T09:54:51;100754.50;;;13.84;65.29
70248;BME280;57641;51.416;5.506;2022-12-22T09:57:17;100757.22;;;13.76;65.40
70248;BME280;57641;51.416;5.506;2022-12-22T09:59:42;100760.66;;;13.54;65.13
70248;BME280;57641;51.416;5.506;2022-12-22T10:02:43;100768.16;;;13.67;66.09
70248;BME280;57641;51.416;5.506;2022-12-22T10:05:49;100773.34;;;13.68;65.93
70248;BME280;57641;51.416;5.506;2022-12-22T10:08:26;100774.28;;;13.44;66.40
70248;BME280;57641;51.416;5.506;2022-12-22T10:10:54;100783.53;;;13.34;66.70
70248;BME280;57641;51.416;5.506;2022-12-22T10:13:20;100777.72;;;13.61;66.59
70248;BME280;57641;51.416;5.506;2022-12-22T10:15:46;100781.09;;;13.86;66.06
70248;BME280;57641;51.416;5.506;2022-12-22T10:18:21;100784.22;;;13.98;66.22
70248;BME280;57641;51.416;5.506;2022-12-22T10:21:12;100779.78;;;13.82;66.11
70248;BME280;57641;51.416;5.506;2022-12-22T10:23:44;100787.34;;;13.78;66.15
70248;BME280;57641;51.416;5.506;2022-12-22T10:26:14;100782.88;;;13.71;65.94
70248;BME280;57641;51.416;5.506;2022-12-22T10:28:44;100780.38;;;13.69;65.73
70248;BME280;57641;51.416;5.506;2022-12-22T10:33:36;100789.25;;;13.23;65.02
70248;BME280;57641;51.416;5.506;2022-12-22T10:36:04;100784.03;;;13.37;64.59
70248;BME280;57641;51.416;5.506;2022-12-22T10:39:18;100787.34;;;13.47;64.72
70248;BME280;57641;51.416;5.506;2022-12-22T10:41:26;100795.00;;;13.50;64.36
70248;BME280;57641;51.416;5.506;2022-12-22T10:43:58;100803.72;;;13.52;64.18
70248;BME280;57641;51.416;5.506;2022-12-22T10:46:31;100794.81;;;13.60;63.98
70248;BME280;57641;51.416;5.506;2022-12-22T10:51:51;100792.66;;;13.56;64.15
70248;BME280;57641;51.416;5.506;2022-12-22T10:54:29;100797.91;;;13.80;63.96
70248;BME280;57641;51.416;5.506;2022-12-22T10:57:05;100802.63;;;13.70;63.96
70248;BME280;57641;51.416;5.506;2022-12-22T10:59:32;100805.75;;;13.81;63.42
70248;BME280;57641;51.416;5.506;2022-12-22T11:04:50;100803.84;;;13.59;64.01
70248;BME280;57641;51.416;5.506;2022-12-22T11:07:16;100813.97;;;13.33;64.74
70248;BME280;57641;51.416;5.506;2022-12-22T11:09:42;100810.41;;;13.48;64.25
70248;BME280;57641;51.416;5.506;2022-12-22T11:23:37;100814.06;;;13.56;63.12
70248;BME280;57641;51.416;5.506;2022-12-22T11:26:12;100812.91;;;13.50;63.00
70248;BME280;57641;51.416;5.506;2022-12-22T11:37:33;100831.03;;;13.40;65.27
70248;BME280;57641;51.416;5.506;2022-12-22T11:40:04;100837.44;;;13.23;65.32
70248;BME280;57641;51.416;5.506;2022-12-22T11:46:01;100837.28;;;13.32;64.96
70248;BME280;57641;51.416;5.506;2022-12-22T11:56:35;100836.50;;;13.54;64.52
70248;BME280;57641;51.416;5.506;2022-12-22T12:01:48;100822.53;;;13.75;64.41
70248;BME280;57641;51.416;5.506;2022-12-22T12:07:26;100823.69;;;13.34;64.20
70248;BME280;57641;51.416;5.506;2022-12-22T12:15:31;100810.91;;;13.52;62.35
70248;BME280;57641;51.416;5.506;2022-12-22T12:23:36;100795.63;;;13.61;62.14
70248;BME280;57641;51.416;5.506;2022-12-22T12:26:24;100788.53;;;13.76;62.61
70248;BME280;57641;51.416;5.506;2022-12-22T12:29:00;100785.22;;;13.74;62.42
70248;BME280;57641;51.416;5.506;2022-12-22T12:31:34;100787.84;;;13.82;62.34
70248;BME280;57641;51.416;5.506;2022-12-22T12:34:03;100779.56;;;13.91;61.52
70248;BME280;57641;51.416;5.506;2022-12-22T12:44:32;100772.88;;;13.95;61.99
70248;BME280;57641;51.416;5.506;2022-12-22T12:47:25;100785.22;;;13.96;61.66
70248;BME280;57641;51.416;5.506;2022-12-22T12:55:30;100773.06;;;13.86;62.28
70248;BME280;57641;51.416;5.506;2022-12-22T12:57:58;100777.28;;;13.80;62.96
70248;BME280;57641;51.416;5.506;2022-12-22T13:05:57;100766.06;;;14.08;62.52
70248;BME280;57641;51.416;5.506;2022-12-22T13:08:27;100773.03;;;13.94;62.40
70248;BME280;57641;51.416;5.506;2022-12-22T13:23:23;100781.28;;;14.15;61.98
70248;BME280;57641;51.416;5.506;2022-12-22T13:25:57;100786.81;;;14.14;62.12
70248;BME280;57641;51.416;5.506;2022-12-22T13:28:24;100781.59;;;14.12;62.56
70248;BME280;57641;51.416;5.506;2022-12-22T13:30:55;100793.00;;;14.14;62.37
70248;BME280;57641;51.416;5.506;2022-12-22T13:33:24;100789.03;;;13.79;62.56
70248;BME280;57641;51.416;5.506;2022-12-22T13:35:51;100779.09;;;13.57;63.56
70248;BME280;57641;51.416;5.506;2022-12-22T13:38:33;100762.66;;;13.91;63.15
70248;BME280;57641;51.416;5.506;2022-12-22T13:41:02;100767.75;;;13.78;62.62
70248;BME280;57641;51.416;5.506;2022-12-22T13:43:29;100770.44;;;13.78;63.08
70248;BME280;57641;51.416;5.506;2022-12-22T13:45:57;100763.56;;;13.83;61.96
70248;BME280;57641;51.416;5.506;2022-12-22T13:48:43;100762.19;;;13.87;61.85
70248;BME280;57641;51.416;5.506;2022-12-22T13:51:25;100752.00;;;13.83;62.30
70248;BME280;57641;51.416;5.506;2022-12-22T13:53:54;100755.69;;;13.82;62.32
70248;BME280;57641;51.416;5.506;2022-12-22T13:58:59;100748.00;;;13.79;61.22
70248;BME280;57641;51.416;5.506;2022-12-22T14:01:26;100746.16;;;13.79;61.39
70248;BME280;57641;51.416;5.506;2022-12-22T14:03:55;100743.78;;;13.84;61.06
70248;BME280;57641;51.416;5.506;2022-12-22T14:06:37;100733.53;;;13.88;60.32
70248;BME280;57641;51.416;5.506;2022-12-22T14:11:42;100734.84;;;13.92;60.78
70248;BME280;57641;51.416;5.506;2022-12-22T14:14:14;100730.50;;;13.91;60.75
70248;BME280;57641;51.416;5.506;2022-12-22T14:16:42;100727.91;;;13.75;60.92
70248;BME280;57641;51.416;5.506;2022-12-22T14:19:12;100736.38;;;13.86;61.22
70248;BME280;57641;51.416;5.506;2022-12-22T14:21:39;100728.84;;;13.90;61.93
70248;BME280;57641;51.416;5.506;2022-12-22T14:24:14;100726.34;;;13.88;62.00
70248;BME280;57641;51.416;5.506;2022-12-22T14:26:43;100723.34;;;13.83;61.86
70248;BME280;57641;51.416;5.506;2022-12-22T14:29:14;100713.06;;;13.95;62.53
70248;BME280;57641;51.416;5.506;2022-12-22T14:32:07;100702.22;;;13.88;62.99
70248;BME280;57641;51.416;5.506;2022-12-22T14:34:33;100709.16;;;13.98;63.01
70248;BME280;57641;51.416;5.506;2022-12-22T14:37:00;100710.31;;;14.03;62.91
70248;BME280;57641;51.416;5.506;2022-12-22T14:39:31;100707.44;;;14.05;62.78
70248;BME280;57641;51.416;5.506;2022-12-22T14:41:59;100696.22;;;14.01;63.38
70248;BME280;57641;51.416;5.506;2022-12-22T14:44:31;100694.22;;;14.03;63.08
70248;BME280;57641;51.416;5.506;2022-12-22T14:49:53;100698.56;;;14.04;63.78
70248;BME280;57641;51.416;5.506;2022-12-22T14:52:44;100688.53;;;14.06;63.70
70248;BME280;57641;51.416;5.506;2022-12-22T14:55:47;100677.47;;;14.01;63.70
70248;BME280;57641;51.416;5.506;2022-12-22T14:58:20;100674.31;;;13.98;63.68
70248;BME280;57641;51.416;5.506;2022-12-22T15:01:15;100665.75;;;14.02;63.87
70248;BME280;57641;51.416;5.506;2022-12-22T15:03:41;100671.81;;;13.96;63.73
70248;BME280;57641;51.416;5.506;2022-12-22T15:06:40;100669.25;;;14.03;64.02
70248;BME280;57641;51.416;5.506;2022-12-22T15:11:47;100672.59;;;14.05;64.07
70248;BME280;57641;51.416;5.506;2022-12-22T15:14:16;100672.44;;;14.06;64.05
70248;BME280;57641;51.416;5.506;2022-12-22T15:16:44;100670.84;;;14.12;64.24
70248;BME280;57641;51.416;5.506;2022-12-22T15:19:13;100656.69;;;14.03;63.66
70248;BME280;57641;51.416;5.506;2022-12-22T15:21:39;100655.69;;;14.04;64.02
70248;BME280;57641;51.416;5.506;2022-12-22T15:24:12;100657.81;;;14.09;64.16
70248;BME280;57641;51.416;5.506;2022-12-22T15:26:43;100650.78;;;14.08;64.20